sensor_id;sensor_type;location;lat;lon;timestamp;temperature;humidity
71627;DHT22;59475;52.464;13.590;2023-05-07T00:00:16;8.54;95.68
71627;DHT22;59475;52.464;13.590;2023-05-07T00:02:44;8.53;95.84
71627;DHT22;59475;52.464;13.590;2023-05-07T00:05:09;8.51;95.57
71627;DHT22;59475;52.464;13.590;2023-05-07T00:07:35;8.55;95.62
71627;DHT22;59475;52.464;13.590;2023-05-07T00:10:01;8.60;94.89
71627;DHT22;59475;52.464;13.590;2023-05-07T00:12:26;8.55;95.42
71627;DHT22;59475;52.464;13.590;2023-05-07T00:14:52;8.55;95.52
71627;DHT22;59475;52.464;13.590;2023-05-07T00:17:17;8.60;95.47
71627;DHT22;59475;52.464;13.590;2023-05-07T00:19:43;8.60;95.44
71627;DHT22;59475;52.464;13.590;2023-05-07T00:22:08;8.60;95.20
71627;DHT22;59475;52.464;13.590;2023-05-07T00:24:34;8.58;94.87
71627;DHT22;59475;52.464;13.590;2023-05-07T00:26:59;8.54;94.64
71627;DHT22;59475;52.464;13.590;2023-05-07T00:29:25;8.48;94.67
71627;DHT22;59475;52.464;13.590;2023-05-07T00:31:50;8.44;94.95
71627;DHT22;59475;52.464;13.590;2023-05-07T00:34:16;8.36;95.21
71627;DHT22;59475;52.464;13.590;2023-05-07T00:36:41;8.33;95.55
71627;DHT22;59475;52.464;13.590;2023-05-07T00:39:07;8.40;95.52
71627;DHT22;59475;52.464;13.590;2023-05-07T00:41:32;8.33;95.65
71627;DHT22;59475;52.464;13.590;2023-05-07T00:43:57;8.33;95.84
71627;DHT22;59475;52.464;13.590;2023-05-07T00:46:23;8.32;96.15
71627;DHT22;59475;52.464;13.590;2023-05-07T00:48:50;8.36;95.64
71627;DHT22;59475;52.464;13.590;2023-05-07T00:51:17;8.33;95.50
71627;DHT22;59475;52.464;13.590;2023-05-07T00:53:42;8.33;95.61
71627;DHT22;59475;52.464;13.590;2023-05-07T00:56:08;8.36;95.59
71627;DHT22;59475;52.464;13.590;2023-05-07T00:58:34;8.34;95.98
71627;DHT22;59475;52.464;13.590;2023-05-07T01:01:00;8.37;96.01
71627;DHT22;59475;52.464;13.590;2023-05-07T01:03:25;8.40;95.67
71627;DHT22;59475;52.464;13.590;2023-05-07T01:05:52;8.43;95.47
71627;DHT22;59475;52.464;13.590;2023-05-07T01:08:18;8.43;95.32
71627;DHT22;59475;52.464;13.590;2023-05-07T01:10:44;8.43;95.24
71627;DHT22;59475;52.464;13.590;2023-05-07T01:13:12;8.38;95.18
71627;DHT22;59475;52.464;13.590;2023-05-07T01:15:38;8.40;95.22
71627;DHT22;59475;52.464;13.590;2023-05-07T01:18:04;8.38;95.50
71627;DHT22;59475;52.464;13.590;2023-05-07T01:20:30;8.37;95.44
71627;DHT22;59475;52.464;13.590;2023-05-07T01:22:57;8.41;95.80
71627;DHT22;59475;52.464;13.590;2023-05-07T01:25:23;8.40;95.74
71627;DHT22;59475;52.464;13.590;2023-05-07T01:27:49;8.37;95.19
71627;DHT22;59475;52.464;13.590;2023-05-07T01:30:16;8.41;95.16
71627;DHT22;59475;52.464;13.590;2023-05-07T01:32:56;8.44;95.37
71627;DHT22;59475;52.464;13.590;2023-05-07T01:35:27;8.38;95.45
71627;DHT22;59475;52.464;13.590;2023-05-07T01:37:54;8.38;95.54
71627;DHT22;59475;52.464;13.590;2023-05-07T01:40:20;8.47;95.10
71627;DHT22;59475;52.464;13.590;2023-05-07T01:42:46;8.47;94.37
71627;DHT22;59475;52.464;13.590;2023-05-07T01:45:13;8.43;94.92
71627;DHT22;59475;52.464;13.590;2023-05-07T01:47:39;8.47;94.80
71627;DHT22;59475;52.464;13.590;2023-05-07T01:50:08;8.50;94.71
71627;DHT22;59475;52.464;13.590;2023-05-07T01:52:37;8.51;94.48
71627;DHT22;59475;52.464;13.590;2023-05-07T01:55:03;8.55;94.23
71627;DHT22;59475;52.464;13.590;2023-05-07T01:57:28;8.48;94.48
71627;DHT22;59475;52.464;13.590;2023-05-07T01:59:54;8.54;94.57
71627;DHT22;59475;52.464;13.590;2023-05-07T02:02:19;8.55;94.62
71627;DHT22;59475;52.464;13.590;2023-05-07T02:04:44;8.57;94.43
71627;DHT22;59475;52.464;13.590;2023-05-07T02:07:10;8.51;94.65
71627;DHT22;59475;52.464;13.590;2023-05-07T02:09:35;8.51;94.65
71627;DHT22;59475;52.464;13.590;2023-05-07T02:12:01;8.53;94.79
71627;DHT22;59475;52.464;13.590;2023-05-07T02:14:26;8.54;94.59
71627;DHT22;59475;52.464;13.590;2023-05-07T02:16:52;8.57;94.27
71627;DHT22;59475;52.464;13.590;2023-05-07T02:19:17;8.54;94.34
71627;DHT22;59475;52.464;13.590;2023-05-07T02:21:43;8.51;94.37
71627;DHT22;59475;52.464;13.590;2023-05-07T02:24:08;8.48;94.61
71627;DHT22;59475;52.464;13.590;2023-05-07T02:26:34;8.57;94.26
71627;DHT22;59475;52.464;13.590;2023-05-07T02:28:59;8.51;94.23
71627;DHT22;59475;52.464;13.590;2023-05-07T02:31:25;8.55;94.16
71627;DHT22;59475;52.464;13.590;2023-05-07T02:33:50;8.61;94.17
71627;DHT22;59475;52.464;13.590;2023-05-07T02:36:16;8.54;94.20
71627;DHT22;59475;52.464;13.590;2023-05-07T02:38:41;8.50;94.42
71627;DHT22;59475;52.464;13.590;2023-05-07T02:41:06;8.53;94.28
71627;DHT22;59475;52.464;13.590;2023-05-07T02:43:32;8.47;94.59
71627;DHT22;59475;52.464;13.590;2023-05-07T02:46:05;8.45;94.33
71627;DHT22;59475;52.464;13.590;2023-05-07T02:48:32;8.48;94.36
71627;DHT22;59475;52.464;13.590;2023-05-07T02:50:58;8.54;94.15
71627;DHT22;59475;52.464;13.590;2023-05-07T02:53:24;8.53;94.09
71627;DHT22;59475;52.464;13.590;2023-05-07T02:55:57;8.50;94.34
71627;DHT22;59475;52.464;13.590;2023-05-07T02:58:22;8.44;94.40
71627;DHT22;59475;52.464;13.590;2023-05-07T03:00:48;8.47;94.48
71627;DHT22;59475;52.464;13.590;2023-05-07T03:03:14;8.48;93.94
71627;DHT22;59475;52.464;13.590;2023-05-07T03:05:39;8.47;94.03
71627;DHT22;59475;52.464;13.590;2023-05-07T03:08:05;8.45;94.09
71627;DHT22;59475;52.464;13.590;2023-05-07T03:10:30;8.44;94.08
71627;DHT22;59475;52.464;13.590;2023-05-07T03:12:56;8.41;94.23
71627;DHT22;59475;52.464;13.590;2023-05-07T03:15:21;8.40;94.27
71627;DHT22;59475;52.464;13.590;2023-05-07T03:17:47;8.40;94.40
71627;DHT22;59475;52.464;13.590;2023-05-07T03:20:13;8.37;94.54
71627;DHT22;59475;52.464;13.590;2023-05-07T03:22:38;8.38;94.22
71627;DHT22;59475;52.464;13.590;2023-05-07T03:25:04;8.43;94.37
71627;DHT22;59475;52.464;13.590;2023-05-07T03:27:30;8.37;93.84
71627;DHT22;59475;52.464;13.590;2023-05-07T03:29:55;8.38;94.23
71627;DHT22;59475;52.464;13.590;2023-05-07T03:32:21;8.38;94.02
71627;DHT22;59475;52.464;13.590;2023-05-07T03:34:46;8.34;94.16
71627;DHT22;59475;52.464;13.590;2023-05-07T03:37:11;8.38;94.23
71627;DHT22;59475;52.464;13.590;2023-05-07T03:39:37;8.36;94.13
71627;DHT22;59475;52.464;13.590;2023-05-07T03:42:02;8.37;93.95
71627;DHT22;59475;52.464;13.590;2023-05-07T03:44:28;8.33;94.25
71627;DHT22;59475;52.464;13.590;2023-05-07T03:46:53;8.34;94.37
71627;DHT22;59475;52.464;13.590;2023-05-07T03:49:19;8.32;94.04
71627;DHT22;59475;52.464;13.590;2023-05-07T03:51:44;8.32;93.58
71627;DHT22;59475;52.464;13.590;2023-05-07T03:54:10;8.37;93.55
71627;DHT22;59475;52.464;13.590;2023-05-07T03:56:35;8.36;93.20
71627;DHT22;59475;52.464;13.590;2023-05-07T03:59:01;8.36;93.62
71627;DHT22;59475;52.464;13.590;2023-05-07T04:01:26;8.36;93.67
71627;DHT22;59475;52.464;13.590;2023-05-07T04:03:52;8.33;93.56
71627;DHT22;59475;52.464;13.590;2023-05-07T04:06:17;8.34;93.52
71627;DHT22;59475;52.464;13.590;2023-05-07T04:08:43;8.33;93.59
71627;DHT22;59475;52.464;13.590;2023-05-07T04:11:09;8.37;93.42
71627;DHT22;59475;52.464;13.590;2023-05-07T04:13:34;8.36;93.30
71627;DHT22;59475;52.464;13.590;2023-05-07T04:16:02;8.37;92.89
71627;DHT22;59475;52.464;13.590;2023-05-07T04:18:28;8.40;93.09
71627;DHT22;59475;52.464;13.590;2023-05-07T04:20:54;8.43;92.62
71627;DHT22;59475;52.464;13.590;2023-05-07T04:23:19;8.43;92.74
71627;DHT22;59475;52.464;13.590;2023-05-07T04:25:44;8.47;92.70
71627;DHT22;59475;52.464;13.590;2023-05-07T04:28:10;8.48;92.19
71627;DHT22;59475;52.464;13.590;2023-05-07T04:30:36;8.51;92.23
71627;DHT22;59475;52.464;13.590;2023-05-07T04:33:02;8.48;92.39
71627;DHT22;59475;52.464;13.590;2023-05-07T04:35:27;8.55;92.35
71627;DHT22;59475;52.464;13.590;2023-05-07T04:37:53;8.60;92.13
71627;DHT22;59475;52.464;13.590;2023-05-07T04:40:18;8.68;91.75
71627;DHT22;59475;52.464;13.590;2023-05-07T04:42:44;8.61;91.69
71627;DHT22;59475;52.464;13.590;2023-05-07T04:45:09;8.61;91.47
71627;DHT22;59475;52.464;13.590;2023-05-07T04:47:35;8.64;91.78
71627;DHT22;59475;52.464;13.590;2023-05-07T04:50:01;8.65;91.47
71627;DHT22;59475;52.464;13.590;2023-05-07T04:52:26;8.64;90.65
71627;DHT22;59475;52.464;13.590;2023-05-07T04:54:52;8.68;91.19
71627;DHT22;59475;52.464;13.590;2023-05-07T04:57:17;8.82;90.49
71627;DHT22;59475;52.464;13.590;2023-05-07T04:59:43;8.89;90.60
71627;DHT22;59475;52.464;13.590;2023-05-07T05:02:10;8.93;90.60
71627;DHT22;59475;52.464;13.590;2023-05-07T05:04:35;9.00;89.69
71627;DHT22;59475;52.464;13.590;2023-05-07T05:07:02;9.06;90.25
71627;DHT22;59475;52.464;13.590;2023-05-07T05:09:28;9.09;89.42
71627;DHT22;59475;52.464;13.590;2023-05-07T05:11:54;9.13;89.70
71627;DHT22;59475;52.464;13.590;2023-05-07T05:14:19;9.20;88.99
71627;DHT22;59475;52.464;13.590;2023-05-07T05:16:45;9.26;88.18
71627;DHT22;59475;52.464;13.590;2023-05-07T05:19:10;9.23;88.35
71627;DHT22;59475;52.464;13.590;2023-05-07T05:21:35;9.22;87.68
71627;DHT22;59475;52.464;13.590;2023-05-07T05:24:01;9.20;88.37
71627;DHT22;59475;52.464;13.590;2023-05-07T05:26:26;9.26;87.77
71627;DHT22;59475;52.464;13.590;2023-05-07T05:28:51;9.30;87.44
71627;DHT22;59475;52.464;13.590;2023-05-07T05:31:17;9.31;87.48
71627;DHT22;59475;52.464;13.590;2023-05-07T05:33:42;9.30;87.78
71627;DHT22;59475;52.464;13.590;2023-05-07T05:36:11;9.27;87.57
71627;DHT22;59475;52.464;13.590;2023-05-07T05:38:38;9.22;87.53
71627;DHT22;59475;52.464;13.590;2023-05-07T05:41:04;9.22;87.55
71627;DHT22;59475;52.464;13.590;2023-05-07T05:43:29;9.31;87.57
71627;DHT22;59475;52.464;13.590;2023-05-07T05:45:55;9.40;87.32
71627;DHT22;59475;52.464;13.590;2023-05-07T05:48:21;9.51;87.35
71627;DHT22;59475;52.464;13.590;2023-05-07T05:50:46;9.58;86.43
71627;DHT22;59475;52.464;13.590;2023-05-07T05:53:11;9.61;86.12
71627;DHT22;59475;52.464;13.590;2023-05-07T05:55:37;9.71;85.92
71627;DHT22;59475;52.464;13.590;2023-05-07T05:58:02;9.78;86.24
71627;DHT22;59475;52.464;13.590;2023-05-07T06:00:28;9.86;85.43
71627;DHT22;59475;52.464;13.590;2023-05-07T06:02:54;9.86;85.53
71627;DHT22;59475;52.464;13.590;2023-05-07T06:05:20;9.89;85.06
71627;DHT22;59475;52.464;13.590;2023-05-07T06:07:45;9.91;84.46
71627;DHT22;59475;52.464;13.590;2023-05-07T06:10:11;9.91;84.14
71627;DHT22;59475;52.464;13.590;2023-05-07T06:12:36;9.75;84.24
71627;DHT22;59475;52.464;13.590;2023-05-07T06:15:02;9.81;84.34
71627;DHT22;59475;52.464;13.590;2023-05-07T06:17:27;9.67;84.75
71627;DHT22;59475;52.464;13.590;2023-05-07T06:19:53;9.79;84.80
71627;DHT22;59475;52.464;13.590;2023-05-07T06:22:19;9.85;84.57
71627;DHT22;59475;52.464;13.590;2023-05-07T06:24:44;9.95;84.61
71627;DHT22;59475;52.464;13.590;2023-05-07T06:27:09;10.09;84.52
71627;DHT22;59475;52.464;13.590;2023-05-07T06:29:35;10.23;84.80
71627;DHT22;59475;52.464;13.590;2023-05-07T06:32:11;10.30;83.45
71627;DHT22;59475;52.464;13.590;2023-05-07T06:34:37;10.40;82.86
71627;DHT22;59475;52.464;13.590;2023-05-07T06:37:03;10.40;82.36
71627;DHT22;59475;52.464;13.590;2023-05-07T06:39:28;10.41;82.68
71627;DHT22;59475;52.464;13.590;2023-05-07T06:41:54;10.32;82.88
71627;DHT22;59475;52.464;13.590;2023-05-07T06:44:19;10.28;82.80
71627;DHT22;59475;52.464;13.590;2023-05-07T06:46:45;10.32;82.85
71627;DHT22;59475;52.464;13.590;2023-05-07T06:49:12;10.49;83.63
71627;DHT22;59475;52.464;13.590;2023-05-07T06:51:37;10.69;82.17
71627;DHT22;59475;52.464;13.590;2023-05-07T06:54:03;10.89;81.26
71627;DHT22;59475;52.464;13.590;2023-05-07T06:56:29;11.08;79.58
71627;DHT22;59475;52.464;13.590;2023-05-07T06:58:55;10.98;78.84
71627;DHT22;59475;52.464;13.590;2023-05-07T07:01:20;11.19;79.62
71627;DHT22;59475;52.464;13.590;2023-05-07T07:03:46;11.36;78.66
71627;DHT22;59475;52.464;13.590;2023-05-07T07:06:11;11.42;77.28
71627;DHT22;59475;52.464;13.590;2023-05-07T07:08:37;12.08;77.76
71627;DHT22;59475;52.464;13.590;2023-05-07T07:11:04;12.52;74.26
71627;DHT22;59475;52.464;13.590;2023-05-07T07:13:29;12.68;72.92
71627;DHT22;59475;52.464;13.590;2023-05-07T07:15:55;12.80;73.17
71627;DHT22;59475;52.464;13.590;2023-05-07T07:18:20;13.15;72.38
71627;DHT22;59475;52.464;13.590;2023-05-07T07:20:46;13.59;71.17
71627;DHT22;59475;52.464;13.590;2023-05-07T07:23:11;13.59;69.65
71627;DHT22;59475;52.464;13.590;2023-05-07T07:25:36;13.57;69.40
71627;DHT22;59475;52.464;13.590;2023-05-07T07:28:02;13.85;68.99
71627;DHT22;59475;52.464;13.590;2023-05-07T07:30:27;13.94;68.39
71627;DHT22;59475;52.464;13.590;2023-05-07T07:32:56;14.11;67.95
71627;DHT22;59475;52.464;13.590;2023-05-07T07:35:27;14.22;67.92
71627;DHT22;59475;52.464;13.590;2023-05-07T07:37:53;14.50;66.33
71627;DHT22;59475;52.464;13.590;2023-05-07T07:40:18;15.10;65.83
71627;DHT22;59475;52.464;13.590;2023-05-07T07:42:43;15.73;64.64
71627;DHT22;59475;52.464;13.590;2023-05-07T07:45:10;16.37;60.60
71627;DHT22;59475;52.464;13.590;2023-05-07T07:47:35;16.87;60.18
71627;DHT22;59475;52.464;13.590;2023-05-07T07:50:01;16.73;58.07
71627;DHT22;59475;52.464;13.590;2023-05-07T07:52:26;15.35;61.61
71627;DHT22;59475;52.464;13.590;2023-05-07T07:54:52;15.55;64.91
71627;DHT22;59475;52.464;13.590;2023-05-07T07:57:17;15.93;61.30
71627;DHT22;59475;52.464;13.590;2023-05-07T07:59:42;16.11;61.16
71627;DHT22;59475;52.464;13.590;2023-05-07T08:02:08;16.18;60.72
71627;DHT22;59475;52.464;13.590;2023-05-07T08:04:34;16.51;59.53
71627;DHT22;59475;52.464;13.590;2023-05-07T08:07:00;16.86;58.39
71627;DHT22;59475;52.464;13.590;2023-05-07T08:09:25;16.94;57.49
71627;DHT22;59475;52.464;13.590;2023-05-07T08:11:53;16.29;58.47
71627;DHT22;59475;52.464;13.590;2023-05-07T08:14:18;16.03;60.08
71627;DHT22;59475;52.464;13.590;2023-05-07T08:16:43;15.91;61.49
71627;DHT22;59475;52.464;13.590;2023-05-07T08:19:09;15.69;61.37
71627;DHT22;59475;52.464;13.590;2023-05-07T08:21:39;15.46;61.14
71627;DHT22;59475;52.464;13.590;2023-05-07T08:24:05;15.67;61.91
71627;DHT22;59475;52.464;13.590;2023-05-07T08:26:30;15.72;60.12
71627;DHT22;59475;52.464;13.590;2023-05-07T08:28:56;15.51;60.80
71627;DHT22;59475;52.464;13.590;2023-05-07T08:31:21;15.23;62.23
71627;DHT22;59475;52.464;13.590;2023-05-07T08:33:47;15.52;60.73
71627;DHT22;59475;52.464;13.590;2023-05-07T08:36:12;15.79;60.46
71627;DHT22;59475;52.464;13.590;2023-05-07T08:38:38;16.07;60.19
71627;DHT22;59475;52.464;13.590;2023-05-07T08:41:05;16.13;58.83
71627;DHT22;59475;52.464;13.590;2023-05-07T08:43:32;16.64;58.18
71627;DHT22;59475;52.464;13.590;2023-05-07T08:46:00;16.42;58.06
71627;DHT22;59475;52.464;13.590;2023-05-07T08:48:29;16.28;58.32
71627;DHT22;59475;52.464;13.590;2023-05-07T08:50:55;15.70;60.00
71627;DHT22;59475;52.464;13.590;2023-05-07T08:53:20;15.15;61.16
71627;DHT22;59475;52.464;13.590;2023-05-07T08:55:47;15.03;61.59
71627;DHT22;59475;52.464;13.590;2023-05-07T08:58:12;14.80;62.37
71627;DHT22;59475;52.464;13.590;2023-05-07T09:00:39;15.01;64.34
71627;DHT22;59475;52.464;13.590;2023-05-07T09:03:05;15.28;61.69
71627;DHT22;59475;52.464;13.590;2023-05-07T09:05:31;15.12;62.03
71627;DHT22;59475;52.464;13.590;2023-05-07T09:07:59;14.90;63.04
71627;DHT22;59475;52.464;13.590;2023-05-07T09:10:25;14.52;64.06
71627;DHT22;59475;52.464;13.590;2023-05-07T09:12:51;14.49;63.10
71627;DHT22;59475;52.464;13.590;2023-05-07T09:15:18;14.43;64.17
71627;DHT22;59475;52.464;13.590;2023-05-07T09:17:44;14.50;63.23
71627;DHT22;59475;52.464;13.590;2023-05-07T09:20:10;14.62;63.88
71627;DHT22;59475;52.464;13.590;2023-05-07T09:22:38;15.00;62.50
71627;DHT22;59475;52.464;13.590;2023-05-07T09:25:05;15.28;62.42
71627;DHT22;59475;52.464;13.590;2023-05-07T09:27:31;15.69;62.11
71627;DHT22;59475;52.464;13.590;2023-05-07T09:29:56;16.14;58.85
71627;DHT22;59475;52.464;13.590;2023-05-07T09:32:22;16.40;59.40
71627;DHT22;59475;52.464;13.590;2023-05-07T09:34:47;16.44;56.95
71627;DHT22;59475;52.464;13.590;2023-05-07T09:37:13;16.41;59.14
71627;DHT22;59475;52.464;13.590;2023-05-07T09:39:46;16.04;58.32
71627;DHT22;59475;52.464;13.590;2023-05-07T09:42:12;15.90;59.29
71627;DHT22;59475;52.464;13.590;2023-05-07T09:44:40;16.48;58.81
71627;DHT22;59475;52.464;13.590;2023-05-07T09:47:06;16.48;58.41
71627;DHT22;59475;52.464;13.590;2023-05-07T09:49:35;16.13;57.66
71627;DHT22;59475;52.464;13.590;2023-05-07T09:52:02;15.87;59.46
71627;DHT22;59475;52.464;13.590;2023-05-07T09:54:29;15.97;58.77
71627;DHT22;59475;52.464;13.590;2023-05-07T09:56:55;15.74;57.89
71627;DHT22;59475;52.464;13.590;2023-05-07T09:59:21;15.70;58.23
71627;DHT22;59475;52.464;13.590;2023-05-07T10:01:48;15.73;59.48
71627;DHT22;59475;52.464;13.590;2023-05-07T10:04:14;15.85;58.85
71627;DHT22;59475;52.464;13.590;2023-05-07T10:06:40;16.14;57.58
71627;DHT22;59475;52.464;13.590;2023-05-07T10:09:06;16.18;57.45
71627;DHT22;59475;52.464;13.590;2023-05-07T10:11:35;15.97;58.33
71627;DHT22;59475;52.464;13.590;2023-05-07T10:14:02;15.80;59.13
71627;DHT22;59475;52.464;13.590;2023-05-07T10:16:33;15.72;58.72
71627;DHT22;59475;52.464;13.590;2023-05-07T10:19:03;15.56;58.75
71627;DHT22;59475;52.464;13.590;2023-05-07T10:21:29;15.65;59.16
71627;DHT22;59475;52.464;13.590;2023-05-07T10:24:22;16.21;56.94
71627;DHT22;59475;52.464;13.590;2023-05-07T10:26:52;16.45;55.94
71627;DHT22;59475;52.464;13.590;2023-05-07T10:32:42;16.13;57.56
71627;DHT22;59475;52.464;13.590;2023-05-07T10:35:26;16.45;57.69
71627;DHT22;59475;52.464;13.590;2023-05-07T10:37:52;17.37;53.09
71627;DHT22;59475;52.464;13.590;2023-05-07T10:40:20;17.92;52.43
71627;DHT22;59475;52.464;13.590;2023-05-07T10:43:01;17.78;51.97
71627;DHT22;59475;52.464;13.590;2023-05-07T10:45:29;17.76;52.68
71627;DHT22;59475;52.464;13.590;2023-05-07T10:50:36;18.09;52.66
71627;DHT22;59475;52.464;13.590;2023-05-07T10:55:39;18.92;49.76
71627;DHT22;59475;52.464;13.590;2023-05-07T10:58:25;18.55;50.21
71627;DHT22;59475;52.464;13.590;2023-05-07T11:00:59;18.03;50.77
71627;DHT22;59475;52.464;13.590;2023-05-07T11:03:26;17.48;51.80
71627;DHT22;59475;52.464;13.590;2023-05-07T11:06:12;17.16;53.09
71627;DHT22;59475;52.464;13.590;2023-05-07T11:08:54;17.61;55.09
71627;DHT22;59475;52.464;13.590;2023-05-07T11:11:20;17.92;53.25
71627;DHT22;59475;52.464;13.590;2023-05-07T11:13:47;18.07;50.36
71627;DHT22;59475;52.464;13.590;2023-05-07T11:16:23;17.83;51.19
71627;DHT22;59475;52.464;13.590;2023-05-07T11:18:53;18.16;51.75
71627;DHT22;59475;52.464;13.590;2023-05-07T11:23:58;18.65;50.07
71627;DHT22;59475;52.464;13.590;2023-05-07T11:26:24;18.85;49.45
71627;DHT22;59475;52.464;13.590;2023-05-07T11:28:51;18.99;49.81
71627;DHT22;59475;52.464;13.590;2023-05-07T11:31:21;19.33;49.88
71627;DHT22;59475;52.464;13.590;2023-05-07T11:33:46;18.71;49.12
71627;DHT22;59475;52.464;13.590;2023-05-07T11:36:12;18.96;50.09
71627;DHT22;59475;52.464;13.590;2023-05-07T11:38:38;19.34;48.71
71627;DHT22;59475;52.464;13.590;2023-05-07T11:41:04;18.62;48.94
71627;DHT22;59475;52.464;13.590;2023-05-07T11:43:32;18.81;49.75
71627;DHT22;59475;52.464;13.590;2023-05-07T11:46:11;19.65;47.85
71627;DHT22;59475;52.464;13.590;2023-05-07T11:48:38;19.83;45.82
71627;DHT22;59475;52.464;13.590;2023-05-07T11:51:05;19.79;46.61
71627;DHT22;59475;52.464;13.590;2023-05-07T11:53:39;19.64;46.60
71627;DHT22;59475;52.464;13.590;2023-05-07T11:56:12;19.63;47.40
71627;DHT22;59475;52.464;13.590;2023-05-07T11:58:39;19.20;46.84
71627;DHT22;59475;52.464;13.590;2023-05-07T12:01:07;19.05;48.36
71627;DHT22;59475;52.464;13.590;2023-05-07T12:03:33;19.23;48.02
71627;DHT22;59475;52.464;13.590;2023-05-07T12:05:59;19.40;47.41
71627;DHT22;59475;52.464;13.590;2023-05-07T12:08:25;19.27;49.34
71627;DHT22;59475;52.464;13.590;2023-05-07T12:10:50;19.26;47.23
71627;DHT22;59475;52.464;13.590;2023-05-07T12:13:24;19.07;49.66
71627;DHT22;59475;52.464;13.590;2023-05-07T12:15:53;19.06;47.81
71627;DHT22;59475;52.464;13.590;2023-05-07T12:18:20;18.91;48.71
71627;DHT22;59475;52.464;13.590;2023-05-07T12:20:46;19.07;49.23
71627;DHT22;59475;52.464;13.590;2023-05-07T12:23:12;19.06;48.54
71627;DHT22;59475;52.464;13.590;2023-05-07T12:25:39;19.10;49.26
71627;DHT22;59475;52.464;13.590;2023-05-07T12:28:07;18.81;48.25
71627;DHT22;59475;52.464;13.590;2023-05-07T12:30:38;18.85;48.23
71627;DHT22;59475;52.464;13.590;2023-05-07T12:33:04;19.10;49.31
71627;DHT22;59475;52.464;13.590;2023-05-07T12:35:31;19.05;47.51
71627;DHT22;59475;52.464;13.590;2023-05-07T12:37:58;19.00;48.53
71627;DHT22;59475;52.464;13.590;2023-05-07T12:40:35;18.86;48.71
71627;DHT22;59475;52.464;13.590;2023-05-07T12:43:00;18.55;49.05
71627;DHT22;59475;52.464;13.590;2023-05-07T12:45:26;18.27;49.59
71627;DHT22;59475;52.464;13.590;2023-05-07T12:47:51;18.33;49.17
71627;DHT22;59475;52.464;13.590;2023-05-07T12:50:17;18.13;48.58
71627;DHT22;59475;52.464;13.590;2023-05-07T12:52:47;18.27;50.22
71627;DHT22;59475;52.464;13.590;2023-05-07T12:55:16;18.29;49.96
71627;DHT22;59475;52.464;13.590;2023-05-07T12:57:48;18.29;49.53
71627;DHT22;59475;52.464;13.590;2023-05-07T13:00:14;18.26;50.03
71627;DHT22;59475;52.464;13.590;2023-05-07T13:02:41;18.23;49.91
71627;DHT22;59475;52.464;13.590;2023-05-07T13:05:09;18.26;49.34
71627;DHT22;59475;52.464;13.590;2023-05-07T13:07:34;18.23;49.47
71627;DHT22;59475;52.464;13.590;2023-05-07T13:10:01;18.23;49.11
71627;DHT22;59475;52.464;13.590;2023-05-07T13:12:27;18.38;49.88
71627;DHT22;59475;52.464;13.590;2023-05-07T13:14:53;18.62;50.30
71627;DHT22;59475;52.464;13.590;2023-05-07T13:17:18;18.85;49.07
71627;DHT22;59475;52.464;13.590;2023-05-07T13:19:44;18.82;47.96
71627;DHT22;59475;52.464;13.590;2023-05-07T13:22:10;18.84;49.72
71627;DHT22;59475;52.464;13.590;2023-05-07T13:24:36;18.76;48.84
71627;DHT22;59475;52.464;13.590;2023-05-07T13:27:01;18.62;48.85
71627;DHT22;59475;52.464;13.590;2023-05-07T13:29:26;18.47;48.53
71627;DHT22;59475;52.464;13.590;2023-05-07T13:31:58;18.44;48.28
71627;DHT22;59475;52.464;13.590;2023-05-07T13:34:23;18.41;49.44
71627;DHT22;59475;52.464;13.590;2023-05-07T13:36:49;18.43;48.86
71627;DHT22;59475;52.464;13.590;2023-05-07T13:39:14;18.31;48.30
71627;DHT22;59475;52.464;13.590;2023-05-07T13:41:40;18.47;49.22
71627;DHT22;59475;52.464;13.590;2023-05-07T13:44:06;18.23;48.24
71627;DHT22;59475;52.464;13.590;2023-05-07T13:46:31;18.30;47.50
71627;DHT22;59475;52.464;13.590;2023-05-07T13:48:56;18.22;47.39
71627;DHT22;59475;52.464;13.590;2023-05-07T13:51:23;18.18;48.77
71627;DHT22;59475;52.464;13.590;2023-05-07T13:53:48;18.33;48.07
71627;DHT22;59475;52.464;13.590;2023-05-07T13:56:14;18.24;46.76
71627;DHT22;59475;52.464;13.590;2023-05-07T13:58:40;18.03;47.97
71627;DHT22;59475;52.464;13.590;2023-05-07T14:01:06;17.96;48.80
71627;DHT22;59475;52.464;13.590;2023-05-07T14:03:31;17.99;48.80
71627;DHT22;59475;52.464;13.590;2023-05-07T14:05:58;18.13;48.92
71627;DHT22;59475;52.464;13.590;2023-05-07T14:08:25;18.26;49.06
71627;DHT22;59475;52.464;13.590;2023-05-07T14:10:50;18.18;49.22
71627;DHT22;59475;52.464;13.590;2023-05-07T14:13:16;18.12;48.80
71627;DHT22;59475;52.464;13.590;2023-05-07T14:15:41;17.83;49.41
71627;DHT22;59475;52.464;13.590;2023-05-07T14:18:11;17.26;49.97
71627;DHT22;59475;52.464;13.590;2023-05-07T14:20:36;17.16;50.94
71627;DHT22;59475;52.464;13.590;2023-05-07T14:23:02;17.17;50.78
71627;DHT22;59475;52.464;13.590;2023-05-07T14:25:28;17.13;51.17
71627;DHT22;59475;52.464;13.590;2023-05-07T14:27:53;17.04;51.07
71627;DHT22;59475;52.464;13.590;2023-05-07T14:30:19;16.84;51.51
71627;DHT22;59475;52.464;13.590;2023-05-07T14:32:45;16.83;52.17
71627;DHT22;59475;52.464;13.590;2023-05-07T14:35:10;16.77;51.82
71627;DHT22;59475;52.464;13.590;2023-05-07T14:37:35;16.72;52.32
71627;DHT22;59475;52.464;13.590;2023-05-07T14:40:01;16.72;52.71
71627;DHT22;59475;52.464;13.590;2023-05-07T14:42:26;16.76;52.08
71627;DHT22;59475;52.464;13.590;2023-05-07T14:44:52;16.79;52.30
71627;DHT22;59475;52.464;13.590;2023-05-07T14:47:18;16.87;52.48
71627;DHT22;59475;52.464;13.590;2023-05-07T14:49:43;16.89;53.08
71627;DHT22;59475;52.464;13.590;2023-05-07T14:52:08;16.66;52.32
71627;DHT22;59475;52.464;13.590;2023-05-07T14:54:35;16.65;53.15
71627;DHT22;59475;52.464;13.590;2023-05-07T14:57:01;16.72;54.09
71627;DHT22;59475;52.464;13.590;2023-05-07T14:59:26;16.73;53.27
71627;DHT22;59475;52.464;13.590;2023-05-07T15:01:52;16.69;53.25
71627;DHT22;59475;52.464;13.590;2023-05-07T15:04:17;16.65;53.74
71627;DHT22;59475;52.464;13.590;2023-05-07T15:06:43;16.76;54.11
71627;DHT22;59475;52.464;13.590;2023-05-07T15:09:08;16.82;53.70
71627;DHT22;59475;52.464;13.590;2023-05-07T15:11:34;16.84;53.09
71627;DHT22;59475;52.464;13.590;2023-05-07T15:14:00;16.65;52.86
71627;DHT22;59475;52.464;13.590;2023-05-07T15:16:25;16.64;53.31
71627;DHT22;59475;52.464;13.590;2023-05-07T15:18:50;16.55;52.72
71627;DHT22;59475;52.464;13.590;2023-05-07T15:21:16;16.61;53.37
71627;DHT22;59475;52.464;13.590;2023-05-07T15:23:41;16.52;52.03
71627;DHT22;59475;52.464;13.590;2023-05-07T15:26:07;16.31;51.87
71627;DHT22;59475;52.464;13.590;2023-05-07T15:28:33;16.28;53.36